sensor_id;sensor_type;location;lat;lon;timestamp;P1;durP1;ratioP1;P2;durP2;ratioP2
52031;SDS011;38044;45.148;39.604;2022-12-18T00:01:03;61.85;;;11.60;;
52031;SDS011;38044;45.148;39.604;2022-12-18T00:03:33;71.50;;;12.18;;
52031;SDS011;38044;45.148;39.604;2022-12-18T00:05:59;41.95;;;10.63;;
52031;SDS011;38044;45.148;39.604;2022-12-18T00:08:25;39.85;;;11.38;;
52031;SDS011;38044;45.148;39.604;2022-12-18T00:10:51;44.17;;;11.48;;
52031;SDS011;38044;45.148;39.604;2022-12-18T00:13:16;49.83;;;13.30;;
52031;SDS011;38044;45.148;39.604;2022-12-18T00:15:42;35.35;;;11.18;;
52031;SDS011;38044;45.148;39.604;2022-12-18T00:18:08;64.32;;;13.15;;
52031;SDS011;38044;45.148;39.604;2022-12-18T00:20:38;66.13;;;11.77;;
52031;SDS011;38044;45.148;39.604;2022-12-18T00:23:05;36.70;;;11.07;;
52031;SDS011;38044;45.148;39.604;2022-12-18T00:25:32;48.65;;;11.85;;
52031;SDS011;38044;45.148;39.604;2022-12-18T00:28:00;38.17;;;12.55;;
52031;SDS011;38044;45.148;39.604;2022-12-18T00:30:26;34.42;;;10.90;;
52031;SDS011;38044;45.148;39.604;2022-12-18T00:32:52;40.92;;;11.93;;
52031;SDS011;38044;45.148;39.604;2022-12-18T00:35:18;40.22;;;11.52;;
52031;SDS011;38044;45.148;39.604;2022-12-18T00:37:43;57.30;;;12.18;;
52031;SDS011;38044;45.148;39.604;2022-12-18T00:40:09;37.47;;;12.55;;
52031;SDS011;38044;45.148;39.604;2022-12-18T00:42:36;48.63;;;12.82;;
52031;SDS011;38044;45.148;39.604;2022-12-18T00:45:19;31.52;;;12.32;;
52031;SDS011;38044;45.148;39.604;2022-12-18T00:47:45;22.58;;;11.40;;
52031;SDS011;38044;45.148;39.604;2022-12-18T00:50:11;16.35;;;11.40;;
52031;SDS011;38044;45.148;39.604;2022-12-18T00:52:37;17.35;;;11.95;;
52031;SDS011;38044;45.148;39.604;2022-12-18T00:55:03;53.42;;;14.00;;
52031;SDS011;38044;45.148;39.604;2022-12-18T00:57:29;25.20;;;12.38;;
52031;SDS011;38044;45.148;39.604;2022-12-18T00:59:55;18.35;;;11.18;;
52031;SDS011;38044;45.148;39.604;2022-12-18T01:02:21;15.13;;;10.63;;
52031;SDS011;38044;45.148;39.604;2022-12-18T01:04:46;17.40;;;11.30;;
52031;SDS011;38044;45.148;39.604;2022-12-18T01:07:12;16.98;;;11.63;;
52031;SDS011;38044;45.148;39.604;2022-12-18T01:09:38;16.73;;;10.20;;
52031;SDS011;38044;45.148;39.604;2022-12-18T01:12:04;13.50;;;9.73;;
52031;SDS011;38044;45.148;39.604;2022-12-18T01:14:30;18.45;;;10.45;;
52031;SDS011;38044;45.148;39.604;2022-12-18T01:16:56;24.33;;;11.07;;
52031;SDS011;38044;45.148;39.604;2022-12-18T01:19:22;16.08;;;10.05;;
52031;SDS011;38044;45.148;39.604;2022-12-18T01:21:49;13.35;;;10.00;;
52031;SDS011;38044;45.148;39.604;2022-12-18T01:24:14;16.17;;;10.55;;
52031;SDS011;38044;45.148;39.604;2022-12-18T01:26:40;14.88;;;10.63;;
52031;SDS011;38044;45.148;39.604;2022-12-18T01:29:06;15.18;;;11.05;;
52031;SDS011;38044;45.148;39.604;2022-12-18T01:31:32;17.35;;;10.70;;
52031;SDS011;38044;45.148;39.604;2022-12-18T01:34:03;14.20;;;10.43;;
52031;SDS011;38044;45.148;39.604;2022-12-18T01:36:30;12.82;;;9.30;;
52031;SDS011;38044;45.148;39.604;2022-12-18T01:39:02;18.20;;;11.52;;
52031;SDS011;38044;45.148;39.604;2022-12-18T01:41:30;15.70;;;10.18;;
52031;SDS011;38044;45.148;39.604;2022-12-18T01:47:26;15.52;;;11.15;;
52031;SDS011;38044;45.148;39.604;2022-12-18T01:49:59;16.77;;;11.27;;
52031;SDS011;38044;45.148;39.604;2022-12-18T01:52:51;14.73;;;10.48;;
52031;SDS011;38044;45.148;39.604;2022-12-18T01:55:20;16.92;;;11.60;;
52031;SDS011;38044;45.148;39.604;2022-12-18T01:57:49;14.93;;;11.60;;
52031;SDS011;38044;45.148;39.604;2022-12-18T02:00:20;16.35;;;11.70;;
52031;SDS011;38044;45.148;39.604;2022-12-18T02:02:47;16.50;;;10.52;;
52031;SDS011;38044;45.148;39.604;2022-12-18T02:05:15;13.10;;;10.40;;
52031;SDS011;38044;45.148;39.604;2022-12-18T02:13:12;13.25;;;10.43;;
52031;SDS011;38044;45.148;39.604;2022-12-18T02:16:13;13.63;;;10.35;;
52031;SDS011;38044;45.148;39.604;2022-12-18T02:18:38;13.90;;;9.95;;
52031;SDS011;38044;45.148;39.604;2022-12-18T02:26:36;16.55;;;11.45;;
52031;SDS011;38044;45.148;39.604;2022-12-18T02:29:10;18.77;;;11.65;;
52031;SDS011;38044;45.148;39.604;2022-12-18T02:31:44;14.05;;;10.35;;
52031;SDS011;38044;45.148;39.604;2022-12-18T02:34:15;16.85;;;11.32;;
52031;SDS011;38044;45.148;39.604;2022-12-18T02:36:43;16.42;;;11.15;;
52031;SDS011;38044;45.148;39.604;2022-12-18T02:39:11;16.58;;;12.10;;
52031;SDS011;38044;45.148;39.604;2022-12-18T02:41:38;19.52;;;12.10;;
52031;SDS011;38044;45.148;39.604;2022-12-18T02:44:09;15.50;;;12.25;;
52031;SDS011;38044;45.148;39.604;2022-12-18T02:46:45;15.52;;;11.50;;
52031;SDS011;38044;45.148;39.604;2022-12-18T02:56:58;13.48;;;10.73;;
52031;SDS011;38044;45.148;39.604;2022-12-18T02:59:58;14.10;;;10.13;;
52031;SDS011;38044;45.148;39.604;2022-12-18T03:10:44;15.23;;;11.23;;
52031;SDS011;38044;45.148;39.604;2022-12-18T03:13:23;15.43;;;10.23;;
52031;SDS011;38044;45.148;39.604;2022-12-18T03:15:57;14.70;;;11.18;;
52031;SDS011;38044;45.148;39.604;2022-12-18T03:18:27;15.00;;;10.20;;
52031;SDS011;38044;45.148;39.604;2022-12-18T03:21:02;18.10;;;11.57;;
52031;SDS011;38044;45.148;39.604;2022-12-18T03:23:32;18.08;;;11.15;;
52031;SDS011;38044;45.148;39.604;2022-12-18T03:26:05;18.55;;;11.57;;
52031;SDS011;38044;45.148;39.604;2022-12-18T03:28:36;16.65;;;11.93;;
52031;SDS011;38044;45.148;39.604;2022-12-18T03:31:08;15.20;;;11.10;;
52031;SDS011;38044;45.148;39.604;2022-12-18T03:33:41;17.75;;;11.20;;
52031;SDS011;38044;45.148;39.604;2022-12-18T03:36:07;16.20;;;11.07;;
52031;SDS011;38044;45.148;39.604;2022-12-18T03:38:34;18.38;;;11.98;;
52031;SDS011;38044;45.148;39.604;2022-12-18T03:41:04;17.50;;;12.32;;
52031;SDS011;38044;45.148;39.604;2022-12-18T03:49:18;20.08;;;12.73;;
52031;SDS011;38044;45.148;39.604;2022-12-18T03:51:57;17.55;;;12.38;;
52031;SDS011;38044;45.148;39.604;2022-12-18T03:54:25;16.70;;;11.05;;
52031;SDS011;38044;45.148;39.604;2022-12-18T03:56:56;19.80;;;12.35;;
52031;SDS011;38044;45.148;39.604;2022-12-18T03:59:26;17.58;;;11.10;;
52031;SDS011;38044;45.148;39.604;2022-12-18T04:01:54;17.40;;;11.55;;
52031;SDS011;38044;45.148;39.604;2022-12-18T04:04:23;16.48;;;10.70;;
52031;SDS011;38044;45.148;39.604;2022-12-18T04:06:50;17.02;;;11.48;;
52031;SDS011;38044;45.148;39.604;2022-12-18T04:09:17;19.67;;;10.73;;
52031;SDS011;38044;45.148;39.604;2022-12-18T04:11:44;17.50;;;12.05;;
52031;SDS011;38044;45.148;39.604;2022-12-18T04:14:11;19.63;;;12.30;;
52031;SDS011;38044;45.148;39.604;2022-12-18T04:16:37;20.58;;;11.48;;
52031;SDS011;38044;45.148;39.604;2022-12-18T04:19:03;20.75;;;12.27;;
52031;SDS011;38044;45.148;39.604;2022-12-18T04:21:30;18.15;;;11.82;;
52031;SDS011;38044;45.148;39.604;2022-12-18T04:23:56;15.60;;;10.90;;
52031;SDS011;38044;45.148;39.604;2022-12-18T04:26:23;17.30;;;10.70;;
52031;SDS011;38044;45.148;39.604;2022-12-18T04:28:49;18.48;;;11.40;;
52031;SDS011;38044;45.148;39.604;2022-12-18T04:31:15;19.98;;;11.20;;
52031;SDS011;38044;45.148;39.604;2022-12-18T04:33:40;17.63;;;10.23;;
52031;SDS011;38044;45.148;39.604;2022-12-18T04:36:06;16.05;;;10.27;;
52031;SDS011;38044;45.148;39.604;2022-12-18T04:38:32;16.05;;;10.10;;
52031;SDS011;38044;45.148;39.604;2022-12-18T04:40:58;17.05;;;10.13;;
52031;SDS011;38044;45.148;39.604;2022-12-18T04:43:24;17.50;;;10.63;;
52031;SDS011;38044;45.148;39.604;2022-12-18T04:45:50;16.92;;;9.95;;
52031;SDS011;38044;45.148;39.604;2022-12-18T04:48:16;16.67;;;10.38;;
52031;SDS011;38044;45.148;39.604;2022-12-18T04:50:42;16.90;;;9.75;;
52031;SDS011;38044;45.148;39.604;2022-12-18T04:53:08;16.17;;;10.23;;
52031;SDS011;38044;45.148;39.604;2022-12-18T04:55:33;15.65;;;10.20;;
52031;SDS011;38044;45.148;39.604;2022-12-18T04:57:59;15.40;;;10.15;;
52031;SDS011;38044;45.148;39.604;2022-12-18T05:00:25;14.88;;;10.40;;
52031;SDS011;38044;45.148;39.604;2022-12-18T05:02:51;16.10;;;10.35;;
52031;SDS011;38044;45.148;39.604;2022-12-18T05:05:16;15.10;;;10.07;;
52031;SDS011;38044;45.148;39.604;2022-12-18T05:07:42;14.15;;;9.70;;
52031;SDS011;38044;45.148;39.604;2022-12-18T05:10:09;13.75;;;9.55;;
52031;SDS011;38044;45.148;39.604;2022-12-18T05:12:35;14.18;;;9.73;;
52031;SDS011;38044;45.148;39.604;2022-12-18T05:15:20;13.63;;;10.18;;
52031;SDS011;38044;45.148;39.604;2022-12-18T05:17:47;15.43;;;10.43;;
52031;SDS011;38044;45.148;39.604;2022-12-18T05:20:15;14.07;;;9.68;;
52031;SDS011;38044;45.148;39.604;2022-12-18T05:22:41;13.75;;;8.82;;
52031;SDS011;38044;45.148;39.604;2022-12-18T05:25:06;14.27;;;9.40;;
52031;SDS011;38044;45.148;39.604;2022-12-18T05:27:33;16.20;;;9.55;;
52031;SDS011;38044;45.148;39.604;2022-12-18T05:29:58;13.90;;;8.80;;
52031;SDS011;38044;45.148;39.604;2022-12-18T05:32:24;12.90;;;8.85;;
52031;SDS011;38044;45.148;39.604;2022-12-18T05:34:50;14.45;;;8.75;;
52031;SDS011;38044;45.148;39.604;2022-12-18T05:37:16;13.77;;;8.85;;
52031;SDS011;38044;45.148;39.604;2022-12-18T05:39:42;12.73;;;8.38;;
52031;SDS011;38044;45.148;39.604;2022-12-18T05:42:09;13.63;;;7.90;;
52031;SDS011;38044;45.148;39.604;2022-12-18T05:44:35;12.50;;;7.75;;
52031;SDS011;38044;45.148;39.604;2022-12-18T05:47:00;17.50;;;7.78;;
52031;SDS011;38044;45.148;39.604;2022-12-18T05:49:26;11.10;;;7.15;;
52031;SDS011;38044;45.148;39.604;2022-12-18T05:51:52;11.02;;;6.95;;
52031;SDS011;38044;45.148;39.604;2022-12-18T05:54:18;8.18;;;6.18;;
52031;SDS011;38044;45.148;39.604;2022-12-18T05:56:44;7.55;;;5.90;;
52031;SDS011;38044;45.148;39.604;2022-12-18T05:59:09;11.13;;;6.70;;
52031;SDS011;38044;45.148;39.604;2022-12-18T06:01:35;9.70;;;6.38;;
52031;SDS011;38044;45.148;39.604;2022-12-18T06:04:01;11.13;;;6.03;;
52031;SDS011;38044;45.148;39.604;2022-12-18T06:06:27;10.52;;;6.28;;
52031;SDS011;38044;45.148;39.604;2022-12-18T06:08:54;11.50;;;6.57;;
52031;SDS011;38044;45.148;39.604;2022-12-18T06:11:22;9.32;;;6.63;;
52031;SDS011;38044;45.148;39.604;2022-12-18T06:13:50;10.88;;;6.18;;
52031;SDS011;38044;45.148;39.604;2022-12-18T06:16:18;9.38;;;6.45;;
52031;SDS011;38044;45.148;39.604;2022-12-18T06:18:43;9.93;;;6.30;;
52031;SDS011;38044;45.148;39.604;2022-12-18T06:21:09;12.43;;;6.45;;
52031;SDS011;38044;45.148;39.604;2022-12-18T06:23:35;7.35;;;5.53;;
52031;SDS011;38044;45.148;39.604;2022-12-18T06:26:05;9.50;;;6.10;;
52031;SDS011;38044;45.148;39.604;2022-12-18T06:28:32;8.07;;;5.82;;
52031;SDS011;38044;45.148;39.604;2022-12-18T06:30:57;7.43;;;5.88;;
52031;SDS011;38044;45.148;39.604;2022-12-18T06:33:25;9.60;;;6.28;;
52031;SDS011;38044;45.148;39.604;2022-12-18T06:35:53;7.82;;;5.70;;
52031;SDS011;38044;45.148;39.604;2022-12-18T06:38:19;8.88;;;5.35;;
52031;SDS011;38044;45.148;39.604;2022-12-18T06:40:45;8.52;;;5.25;;
52031;SDS011;38044;45.148;39.604;2022-12-18T06:43:11;6.03;;;5.38;;
52031;SDS011;38044;45.148;39.604;2022-12-18T06:45:36;6.20;;;4.63;;
52031;SDS011;38044;45.148;39.604;2022-12-18T06:48:04;7.13;;;4.65;;
52031;SDS011;38044;45.148;39.604;2022-12-18T06:50:30;8.10;;;5.88;;
52031;SDS011;38044;45.148;39.604;2022-12-18T06:52:55;6.03;;;5.38;;
52031;SDS011;38044;45.148;39.604;2022-12-18T06:55:21;9.40;;;4.60;;
52031;SDS011;38044;45.148;39.604;2022-12-18T06:57:47;6.47;;;4.40;;
52031;SDS011;38044;45.148;39.604;2022-12-18T07:00:13;7.43;;;4.60;;
52031;SDS011;38044;45.148;39.604;2022-12-18T07:02:39;7.78;;;4.53;;
52031;SDS011;38044;45.148;39.604;2022-12-18T07:05:05;7.18;;;4.70;;
52031;SDS011;38044;45.148;39.604;2022-12-18T07:07:33;7.80;;;4.70;;
52031;SDS011;38044;45.148;39.604;2022-12-18T07:09:59;8.38;;;5.25;;
52031;SDS011;38044;45.148;39.604;2022-12-18T07:12:26;5.82;;;4.15;;
52031;SDS011;38044;45.148;39.604;2022-12-18T07:14:52;6.30;;;4.47;;
52031;SDS011;38044;45.148;39.604;2022-12-18T07:17:18;6.10;;;4.53;;
52031;SDS011;38044;45.148;39.604;2022-12-18T07:19:44;5.95;;;4.88;;
52031;SDS011;38044;45.148;39.604;2022-12-18T07:22:10;7.43;;;4.82;;
52031;SDS011;38044;45.148;39.604;2022-12-18T07:24:36;7.53;;;5.15;;
52031;SDS011;38044;45.148;39.604;2022-12-18T07:27:02;11.10;;;5.60;;
52031;SDS011;38044;45.148;39.604;2022-12-18T07:29:28;7.82;;;5.25;;
52031;SDS011;38044;45.148;39.604;2022-12-18T07:31:54;8.15;;;5.82;;
52031;SDS011;38044;45.148;39.604;2022-12-18T07:34:19;8.18;;;5.40;;
52031;SDS011;38044;45.148;39.604;2022-12-18T07:36:45;8.65;;;5.35;;
52031;SDS011;38044;45.148;39.604;2022-12-18T07:39:11;9.90;;;5.70;;
52031;SDS011;38044;45.148;39.604;2022-12-18T07:41:37;9.10;;;5.50;;
52031;SDS011;38044;45.148;39.604;2022-12-18T07:44:03;9.60;;;5.75;;
52031;SDS011;38044;45.148;39.604;2022-12-18T07:46:29;7.53;;;5.50;;
52031;SDS011;38044;45.148;39.604;2022-12-18T07:48:55;13.00;;;5.68;;
52031;SDS011;38044;45.148;39.604;2022-12-18T07:51:21;8.60;;;5.70;;
52031;SDS011;38044;45.148;39.604;2022-12-18T07:53:46;7.85;;;5.47;;
52031;SDS011;38044;45.148;39.604;2022-12-18T07:56:12;9.30;;;5.88;;
52031;SDS011;38044;45.148;39.604;2022-12-18T07:58:38;8.20;;;5.03;;
52031;SDS011;38044;45.148;39.604;2022-12-18T08:01:08;7.55;;;5.63;;
52031;SDS011;38044;45.148;39.604;2022-12-18T08:03:37;10.45;;;5.65;;
52031;SDS011;38044;45.148;39.604;2022-12-18T08:06:04;7.10;;;5.00;;
52031;SDS011;38044;45.148;39.604;2022-12-18T08:08:32;12.90;;;6.18;;
52031;SDS011;38044;45.148;39.604;2022-12-18T08:10:59;10.55;;;5.85;;
52031;SDS011;38044;45.148;39.604;2022-12-18T08:13:25;15.18;;;6.63;;
52031;SDS011;38044;45.148;39.604;2022-12-18T08:15:58;11.07;;;6.00;;
52031;SDS011;38044;45.148;39.604;2022-12-18T08:18:26;10.27;;;5.70;;
52031;SDS011;38044;45.148;39.604;2022-12-18T08:20:52;10.05;;;6.40;;
52031;SDS011;38044;45.148;39.604;2022-12-18T08:23:18;10.38;;;5.78;;
52031;SDS011;38044;45.148;39.604;2022-12-18T08:25:44;9.02;;;6.47;;
52031;SDS011;38044;45.148;39.604;2022-12-18T08:28:10;9.30;;;5.78;;
52031;SDS011;38044;45.148;39.604;2022-12-18T08:30:36;10.77;;;6.03;;
52031;SDS011;38044;45.148;39.604;2022-12-18T08:33:02;8.10;;;5.85;;
52031;SDS011;38044;45.148;39.604;2022-12-18T08:35:28;9.48;;;4.90;;
52031;SDS011;38044;45.148;39.604;2022-12-18T08:37:54;8.15;;;4.93;;
52031;SDS011;38044;45.148;39.604;2022-12-18T08:40:19;8.25;;;4.75;;
52031;SDS011;38044;45.148;39.604;2022-12-18T08:42:45;6.70;;;4.50;;
52031;SDS011;38044;45.148;39.604;2022-12-18T08:45:29;8.18;;;4.47;;
52031;SDS011;38044;45.148;39.604;2022-12-18T08:47:55;9.25;;;4.43;;
52031;SDS011;38044;45.148;39.604;2022-12-18T08:50:21;10.00;;;5.38;;
52031;SDS011;38044;45.148;39.604;2022-12-18T08:52:47;10.15;;;5.10;;
52031;SDS011;38044;45.148;39.604;2022-12-18T08:55:12;10.75;;;5.80;;
52031;SDS011;38044;45.148;39.604;2022-12-18T08:57:38;9.18;;;6.13;;
52031;SDS011;38044;45.148;39.604;2022-12-18T09:00:04;13.00;;;6.63;;
52031;SDS011;38044;45.148;39.604;2022-12-18T09:02:30;7.68;;;6.70;;
52031;SDS011;38044;45.148;39.604;2022-12-18T09:04:56;8.55;;;4.40;;
52031;SDS011;38044;45.148;39.604;2022-12-18T09:07:22;7.75;;;4.65;;
52031;SDS011;38044;45.148;39.604;2022-12-18T09:09:48;10.15;;;4.35;;
52031;SDS011;38044;45.148;39.604;2022-12-18T09:12:14;7.45;;;4.22;;
52031;SDS011;38044;45.148;39.604;2022-12-18T09:14:39;7.35;;;4.47;;
52031;SDS011;38044;45.148;39.604;2022-12-18T09:17:05;6.55;;;3.60;;
52031;SDS011;38044;45.148;39.604;2022-12-18T09:19:31;6.63;;;3.60;;
52031;SDS011;38044;45.148;39.604;2022-12-18T09:21:57;8.18;;;4.40;;
52031;SDS011;38044;45.148;39.604;2022-12-18T09:24:23;8.95;;;5.10;;
52031;SDS011;38044;45.148;39.604;2022-12-18T09:26:52;7.28;;;4.88;;
52031;SDS011;38044;45.148;39.604;2022-12-18T09:29:20;7.95;;;5.45;;
52031;SDS011;38044;45.148;39.604;2022-12-18T09:31:46;14.98;;;8.60;;
52031;SDS011;38044;45.148;39.604;2022-12-18T09:34:12;17.80;;;10.20;;
52031;SDS011;38044;45.148;39.604;2022-12-18T09:36:38;19.05;;;11.98;;
52031;SDS011;38044;45.148;39.604;2022-12-18T09:39:04;8.20;;;6.68;;
52031;SDS011;38044;45.148;39.604;2022-12-18T09:46:47;14.70;;;10.07;;
52031;SDS011;38044;45.148;39.604;2022-12-18T09:49:20;12.48;;;7.72;;
52031;SDS011;38044;45.148;39.604;2022-12-18T09:51:50;8.55;;;7.28;;
52031;SDS011;38044;45.148;39.604;2022-12-18T09:54:38;11.85;;;7.78;;
52031;SDS011;38044;45.148;39.604;2022-12-18T09:57:05;9.30;;;7.05;;
52031;SDS011;38044;45.148;39.604;2022-12-18T09:59:35;8.20;;;6.68;;
52031;SDS011;38044;45.148;39.604;2022-12-18T10:02:38;10.68;;;6.80;;
52031;SDS011;38044;45.148;39.604;2022-12-18T10:05:05;11.02;;;7.55;;
52031;SDS011;38044;45.148;39.604;2022-12-18T10:07:44;9.75;;;7.40;;
52031;SDS011;38044;45.148;39.604;2022-12-18T10:10:29;10.07;;;7.65;;
52031;SDS011;38044;45.148;39.604;2022-12-18T10:13:08;12.25;;;7.47;;
52031;SDS011;38044;45.148;39.604;2022-12-18T10:16:13;9.23;;;6.70;;
52031;SDS011;38044;45.148;39.604;2022-12-18T10:24:42;9.50;;;6.75;;
52031;SDS011;38044;45.148;39.604;2022-12-18T10:27:29;14.77;;;9.38;;
52031;SDS011;38044;45.148;39.604;2022-12-18T10:29:55;24.88;;;11.27;;
52031;SDS011;38044;45.148;39.604;2022-12-18T10:32:27;22.17;;;12.13;;
52031;SDS011;38044;45.148;39.604;2022-12-18T10:34:55;17.70;;;8.82;;
52031;SDS011;38044;45.148;39.604;2022-12-18T10:37:24;16.02;;;8.07;;
52031;SDS011;38044;45.148;39.604;2022-12-18T10:40:08;15.95;;;7.90;;
52031;SDS011;38044;45.148;39.604;2022-12-18T10:42:37;9.35;;;6.22;;
52031;SDS011;38044;45.148;39.604;2022-12-18T10:45:08;15.15;;;7.03;;
52031;SDS011;38044;45.148;39.604;2022-12-18T10:47:36;17.25;;;9.65;;
52031;SDS011;38044;45.148;39.604;2022-12-18T10:50:45;32.08;;;21.73;;
52031;SDS011;38044;45.148;39.604;2022-12-18T10:53:04;33.92;;;25.75;;
52031;SDS011;38044;45.148;39.604;2022-12-18T10:55:37;16.80;;;12.05;;
52031;SDS011;38044;45.148;39.604;2022-12-18T11:03:35;43.58;;;38.95;;
52031;SDS011;38044;45.148;39.604;2022-12-18T11:06:06;34.22;;;27.25;;
52031;SDS011;38044;45.148;39.604;2022-12-18T11:08:32;23.92;;;19.15;;
52031;SDS011;38044;45.148;39.604;2022-12-18T11:10:58;26.73;;;22.10;;
52031;SDS011;38044;45.148;39.604;2022-12-18T11:13:24;17.20;;;14.43;;
52031;SDS011;38044;45.148;39.604;2022-12-18T11:15:53;9.65;;;7.65;;
52031;SDS011;38044;45.148;39.604;2022-12-18T11:20:54;6.32;;;5.53;;
52031;SDS011;38044;45.148;39.604;2022-12-18T11:23:25;7.57;;;5.95;;
52031;SDS011;38044;45.148;39.604;2022-12-18T11:28:35;14.48;;;13.07;;
52031;SDS011;38044;45.148;39.604;2022-12-18T11:31:30;16.92;;;15.55;;
52031;SDS011;38044;45.148;39.604;2022-12-18T11:36:51;8.35;;;5.88;;
52031;SDS011;38044;45.148;39.604;2022-12-18T11:41:59;7.95;;;6.55;;
52031;SDS011;38044;45.148;39.604;2022-12-18T11:47:28;74.20;;;46.13;;
52031;SDS011;38044;45.148;39.604;2022-12-18T11:50:25;34.33;;;21.80;;
52031;SDS011;38044;45.148;39.604;2022-12-18T11:52:59;17.35;;;10.18;;
52031;SDS011;38044;45.148;39.604;2022-12-18T11:58:18;46.55;;;25.77;;
52031;SDS011;38044;45.148;39.604;2022-12-18T12:01:18;28.48;;;17.02;;
52031;SDS011;38044;45.148;39.604;2022-12-18T12:40:27;12.63;;;9.10;;
52031;SDS011;38044;45.148;39.604;2022-12-18T12:43:00;15.63;;;9.93;;
52031;SDS011;38044;45.148;39.604;2022-12-18T12:51:20;22.40;;;13.88;;
52031;SDS011;38044;45.148;39.604;2022-12-18T12:53:58;23.00;;;14.70;;
52031;SDS011;38044;45.148;39.604;2022-12-18T12:56:38;17.80;;;11.32;;
52031;SDS011;38044;45.148;39.604;2022-12-18T12:59:13;17.90;;;10.95;;
52031;SDS011;38044;45.148;39.604;2022-12-18T13:07:26;19.10;;;11.38;;
52031;SDS011;38044;45.148;39.604;2022-12-18T13:10:22;16.20;;;11.93;;
52031;SDS011;38044;45.148;39.604;2022-12-18T13:12:58;18.58;;;12.45;;
52031;SDS011;38044;45.148;39.604;2022-12-18T13:15:34;24.77;;;16.15;;
52031;SDS011;38044;45.148;39.604;2022-12-18T13:20:34;42.75;;;19.45;;
52031;SDS011;38044;45.148;39.604;2022-12-18T13:23:01;25.75;;;14.52;;
52031;SDS011;38044;45.148;39.604;2022-12-18T13:25:57;22.50;;;11.90;;
52031;SDS011;38044;45.148;39.604;2022-12-18T13:31:58;24.23;;;14.52;;
52031;SDS011;38044;45.148;39.604;2022-12-18T13:36:50;24.45;;;12.95;;
52031;SDS011;38044;45.148;39.604;2022-12-18T13:41:44;25.25;;;12.60;;
52031;SDS011;38044;45.148;39.604;2022-12-18T13:53:04;24.65;;;14.30;;
52031;SDS011;38044;45.148;39.604;2022-12-18T13:55:31;28.25;;;16.85;;
52031;SDS011;38044;45.148;39.604;2022-12-18T13:58:04;34.20;;;18.13;;
52031;SDS011;38044;45.148;39.604;2022-12-18T14:00:31;55.45;;;35.90;;
52031;SDS011;38044;45.148;39.604;2022-12-18T14:02:57;87.70;;;63.63;;
52031;SDS011;38044;45.148;39.604;2022-12-18T14:05:30;74.20;;;51.75;;
52031;SDS011;38044;45.148;39.604;2022-12-18T14:08:15;60.15;;;39.83;;
52031;SDS011;38044;45.148;39.604;2022-12-18T14:10:42;48.67;;;30.10;;
52031;SDS011;38044;45.148;39.604;2022-12-18T14:13:16;47.35;;;27.50;;
52031;SDS011;38044;45.148;39.604;2022-12-18T14:15:46;39.63;;;25.52;;
52031;SDS011;38044;45.148;39.604;2022-12-18T14:20:52;43.53;;;25.67;;
52031;SDS011;38044;45.148;39.604;2022-12-18T14:26:40;24.05;;;16.02;;
52031;SDS011;38044;45.148;39.604;2022-12-18T14:32:05;26.40;;;16.08;;
52031;SDS011;38044;45.148;39.604;2022-12-18T14:34:30;25.98;;;16.05;;
52031;SDS011;38044;45.148;39.604;2022-12-18T14:36:56;23.70;;;15.98;;
52031;SDS011;38044;45.148;39.604;2022-12-18T14:39:22;22.50;;;14.73;;
52031;SDS011;38044;45.148;39.604;2022-12-18T14:41:50;22.83;;;15.38;;
52031;SDS011;38044;45.148;39.604;2022-12-18T14:44:17;20.08;;;13.10;;
52031;SDS011;38044;45.148;39.604;2022-12-18T14:46:44;21.75;;;13.73;;
52031;SDS011;38044;45.148;39.604;2022-12-18T14:51:57;20.45;;;14.15;;
52031;SDS011;38044;45.148;39.604;2022-12-18T14:54:29;20.35;;;12.95;;
52031;SDS011;38044;45.148;39.604;2022-12-18T14:59:25;18.98;;;12.90;;
52031;SDS011;38044;45.148;39.604;2022-12-18T15:01:59;21.55;;;12.48;;
52031;SDS011;38044;45.148;39.604;2022-12-18T15:04:34;16.50;;;10.20;;
52031;SDS011;38044;45.148;39.604;2022-12-18T15:07:08;15.07;;;9.27;;
52031;SDS011;38044;45.148;39.604;2022-12-18T15:09:35;15.13;;;9.98;;
52031;SDS011;38044;45.148;39.604;2022-12-18T15:12:01;13.15;;;9.05;;
52031;SDS011;38044;45.148;39.604;2022-12-18T15:14:32;15.07;;;8.85;;
52031;SDS011;38044;45.148;39.604;2022-12-18T15:17:18;14.73;;;8.90;;
52031;SDS011;38044;45.148;39.604;2022-12-18T15:19:47;13.90;;;8.63;;
52031;SDS011;38044;45.148;39.604;2022-12-18T15:22:22;13.05;;;6.85;;
52031;SDS011;38044;45.148;39.604;2022-12-18T15:24:55;11.40;;;7.65;;
52031;SDS011;38044;45.148;39.604;2022-12-18T15:32:35;9.77;;;6.40;;
52031;SDS011;38044;45.148;39.604;2022-12-18T15:35:07;10.85;;;7.22;;
52031;SDS011;38044;45.148;39.604;2022-12-18T15:37:40;10.70;;;6.22;;
52031;SDS011;38044;45.148;39.604;2022-12-18T15:40:12;10.45;;;6.40;;
52031;SDS011;38044;45.148;39.604;2022-12-18T15:42:50;10.80;;;6.55;;
52031;SDS011;38044;45.148;39.604;2022-12-18T15:45:37;11.25;;;6.82;;
52031;SDS011;38044;45.148;39.604;2022-12-18T15:48:08;11.52;;;7.30;;
52031;SDS011;38044;45.148;39.604;2022-12-18T15:50:50;13.30;;;7.70;;
52031;SDS011;38044;45.148;39.604;2022-12-18T15:53:18;12.73;;;6.90;;
52031;SDS011;38044;45.148;39.604;2022-12-18T15:55:46;14.40;;;7.32;;
52031;SDS011;38044;45.148;39.604;2022-12-18T15:58:30;16.17;;;8.13;;
52031;SDS011;38044;45.148;39.604;2022-12-18T16:00:58;13.77;;;7.90;;
52031;SDS011;38044;45.148;39.604;2022-12-18T16:03:24;15.10;;;8.25;;
52031;SDS011;38044;45.148;39.604;2022-12-18T16:05:50;13.25;;;7.07;;
52031;SDS011;38044;45.148;39.604;2022-12-18T16:08:16;14.18;;;7.53;;
52031;SDS011;38044;45.148;39.604;2022-12-18T16:10:42;12.55;;;7.72;;
52031;SDS011;38044;45.148;39.604;2022-12-18T16:13:15;12.35;;;6.82;;
52031;SDS011;38044;45.148;39.604;2022-12-18T16:15:44;11.90;;;6.88;;
52031;SDS011;38044;45.148;39.604;2022-12-18T16:18:10;13.82;;;7.68;;
52031;SDS011;38044;45.148;39.604;2022-12-18T16:20:36;16.42;;;8.27;;
52031;SDS011;38044;45.148;39.604;2022-12-18T16:23:03;19.77;;;9.38;;
52031;SDS011;38044;45.148;39.604;2022-12-18T16:25:29;22.95;;;10.00;;
52031;SDS011;38044;45.148;39.604;2022-12-18T16:27:56;25.25;;;11.85;;
52031;SDS011;38044;45.148;39.604;2022-12-18T16:30:26;17.58;;;10.30;;
52031;SDS011;38044;45.148;39.604;2022-12-18T16:32:54;17.30;;;9.95;;
52031;SDS011;38044;45.148;39.604;2022-12-18T16:35:22;21.27;;;10.32;;
52031;SDS011;38044;45.148;39.604;2022-12-18T16:37:49;15.02;;;8.30;;
52031;SDS011;38044;45.148;39.604;2022-12-18T16:40:15;11.98;;;8.38;;
52031;SDS011;38044;45.148;39.604;2022-12-18T16:42:43;16.23;;;9.35;;
52031;SDS011;38044;45.148;39.604;2022-12-18T16:45:11;16.63;;;9.70;;
52031;SDS011;38044;45.148;39.604;2022-12-18T16:47:41;14.45;;;9.10;;
52031;SDS011;38044;45.148;39.604;2022-12-18T16:50:07;14.02;;;9.30;;
52031;SDS011;38044;45.148;39.604;2022-12-18T16:52:34;16.00;;;10.43;;
52031;SDS011;38044;45.148;39.604;2022-12-18T16:55:01;15.82;;;9.98;;
52031;SDS011;38044;45.148;39.604;2022-12-18T16:57:27;17.02;;;10.75;;
52031;SDS011;38044;45.148;39.604;2022-12-18T16:59:52;17.77;;;11.27;;
52031;SDS011;38044;45.148;39.604;2022-12-18T17:02:19;15.93;;;10.63;;
52031;SDS011;38044;45.148;39.604;2022-12-18T17:04:46;16.60;;;10.73;;
52031;SDS011;38044;45.148;39.604;2022-12-18T17:07:13;20.77;;;12.27;;